Flight Track Log - Related Links

Times and Time Zones

All times are in EDT time to prevent confusion due to time zone crossing. See the AAY824 flight status page for this flight to view local times or setup timezone preferences in your user account.

Time Position Orientation Groundspeed Altitude Reporting Facility
EDT Latitude Longitude Course Direction KTS MPH feet Rate Location/Type
Mon 08:00:00 AM 27.9167 -82.6833 319° Northwest 147 169 600  Level Tampa TRACON
Mon 08:00:24 AM 27.9333 -82.7000 319° Northwest 154 177 1,700 1,667 Climbing Tampa TRACON
Mon 08:01:30 AM 28.0000 -82.6667 24° Northeast 247 284 3,100 1,810 Climbing Tampa TRACON
Mon 08:02:30 AM 28.0667 -82.6500 12° North 255 293 5,500 2,450 Climbing Tampa TRACON
Mon 08:03:30 AM 28.1333 -82.6333 12° North 255 293 8,000 1,800 Climbing Tampa TRACON
Mon 08:04:30 AM 28.2000 -82.6167 12° North 261 300 9,100 1,294 Climbing Tampa TRACON
Mon 08:06:54 AM 28.3503 -82.7322 326° Northwest 416 479 12,400 1,353 Climbing Jacksonville Center
Mon 08:07:54 AM 28.4086 -82.8075 311° West 348 400 13,700 1,200 Climbing Jacksonville Center
Mon 08:08:54 AM 28.4942 -82.8689 328° Northwest 348 400 14,800 1,450 Climbing Jacksonville Center
Mon 08:09:54 AM 28.5944 -82.9328 331° Northwest 383 441 16,600 1,850 Climbing Jacksonville Center
Mon 08:10:54 AM 28.7031 -82.9731 342° North 410 472 18,500 1,850 Climbing Jacksonville Center
Mon 08:11:54 AM 28.8178 -83.0158 342° North 416 479 20,300 1,700 Climbing Jacksonville Center
Mon 08:12:54 AM 28.9325 -83.0586 342° North 421 484 21,900 1,600 Climbing Jacksonville Center
Mon 08:13:54 AM 29.0514 -83.0969 344° North 429 494 23,500 1,650 Climbing Jacksonville Center
Mon 08:14:54 AM 29.1703 -83.1422 342° North 443 510 25,200 1,250 Climbing Jacksonville Center
Mon 08:15:54 AM 29.2892 -83.1758 346° North 443 510 26,000 400 Climbing Jacksonville Center
Mon 08:16:54 AM 29.4017 -83.2144 343° North 432 497 26,000  Level Jacksonville Center
Mon 08:17:54 AM 29.5206 -83.2553 343° North 432 497 26,000 250 Level Jacksonville Center
Mon 08:18:54 AM 29.6228 -83.2964 341° North 432 497 26,500 900 Climbing Jacksonville Center
Mon 08:19:54 AM 29.7228 -83.3733 326° Northwest 432 497 27,800 1,350 Climbing Jacksonville Center
Mon 08:20:54 AM 29.8311 -83.4361 333° Northwest 432 497 29,200 1,250 Climbing Jacksonville Center
Mon 08:21:54 AM 29.9331 -83.5061 329° Northwest 432 497 30,300 1,050 Climbing Jacksonville Center
Mon 08:22:54 AM 30.0372 -83.5692 332° Northwest 432 497 31,300 850 Climbing Jacksonville Center
Mon 08:23:54 AM 30.1392 -83.6394 329° Northwest 432 497 32,000 350 Climbing Jacksonville Center
Mon 08:24:54 AM 30.2431 -83.7078 330° Northwest 427 491 32,000  Level Jacksonville Center
Mon 08:25:54 AM 30.3469 -83.7783 330° Northwest 427 491 32,000  Level Jacksonville Center
Mon 08:26:54 AM 30.4508 -83.8444 331° Northwest 427 491 32,000  Level Jacksonville Center
Mon 08:27:54 AM 30.5589 -83.9203 329° Northwest 417 480 32,000  Level Jacksonville Center
Mon 08:28:54 AM 30.6628 -83.9889 330° Northwest 417 480 32,000  Level Jacksonville Center
Mon 08:29:54 AM 30.7644 -84.0578 330° Northwest 423 487 32,000  Level Jacksonville Center
Mon 08:30:54 AM 30.8681 -84.1269 330° Northwest 428 493 32,000  Level Jacksonville Center
Mon 08:32:40 AM 31.0369 -84.2425 330° Northwest 441 507 32,000  Level Atlanta Center
Mon 08:33:40 AM 31.1369 -84.3131 329° Northwest 429 494 32,000  Level Atlanta Center
Mon 08:34:40 AM 31.2431 -84.3789 332° Northwest 424 488 32,000  Level Atlanta Center
Mon 08:35:40 AM 31.3431 -84.4522 328° Northwest 424 488 32,000  Level Atlanta Center
Mon 08:36:40 AM 31.4472 -84.5183 332° Northwest 424 488 32,000  Level Atlanta Center
Mon 08:37:40 AM 31.5472 -84.5897 329° Northwest 424 488 32,000  Level Atlanta Center
Mon 08:38:40 AM 31.6492 -84.6586 330° Northwest 424 488 32,000  Level Atlanta Center
Mon 08:39:40 AM 31.7489 -84.7300 329° Northwest 424 488 32,000  Level Atlanta Center
Mon 08:40:40 AM 31.8508 -84.7967 331° Northwest 419 482 32,000  Level Atlanta Center
Mon 08:41:40 AM 31.9611 -84.8394 342° North 414 476 32,000  Level Atlanta Center
Mon 08:42:40 AM 32.0736 -84.8772 344° North 414 476 32,000  Level Atlanta Center
Mon 08:43:40 AM 32.1839 -84.9175 343° North 414 476 32,000  Level Atlanta Center
Mon 08:44:40 AM 32.2964 -84.9506 346° North 414 476 32,000  Level Atlanta Center
Mon 08:45:40 AM 32.4067 -84.9886 344° North 414 476 32,000  Level Atlanta Center
Mon 08:46:40 AM 32.5211 -85.0242 345° North 419 482 32,000  Level Atlanta Center
Mon 08:47:40 AM 32.6317 -85.0625 344° North 422 486 32,000  Level Atlanta Center
Mon 08:48:40 AM 32.7461 -85.1008 344° North 421 484 32,000  Level Atlanta Center
Mon 08:49:40 AM 32.8728 -85.1519 341° North 426 490 32,000  Level Atlanta Center
Mon 08:50:40 AM 32.9728 -85.1778 348° North 418 481 32,000  Level Atlanta Center
Mon 08:51:40 AM 33.0933 -85.2314 340° North 418 481 32,000  Level Atlanta Center
Mon 08:52:40 AM 33.2014 -85.2825 338° Northwest 424 488 32,000  Level Atlanta Center
Mon 08:53:40 AM 33.3136 -85.3289 341° North 424 488 32,000 50 Level Atlanta Center
Mon 08:54:40 AM 33.4194 -85.3828 337° Northwest 418 481 32,100 400 Climbing Atlanta Center
Mon 08:55:40 AM 33.5256 -85.4292 340° North 418 481 32,800 600 Climbing Atlanta Center
Mon 08:56:40 AM 33.6208 -85.4783 337° Northwest 413 475 33,300 550 Climbing Atlanta Center
Mon 08:57:40 AM 33.7331 -85.5275 340° North 414 476 33,900 350 Climbing Atlanta Center
Mon 08:58:40 AM 33.8411 -85.5769 339° North 414 476 34,000 50 Climbing Atlanta Center
Mon 08:59:40 AM 33.9469 -85.6239 340° North 409 471 34,000  Level Atlanta Center
Mon 09:00:40 AM 34.0567 -85.6786 338° Northwest 414 476 34,000  Level Atlanta Center
Mon 09:01:40 AM 34.1731 -85.7311 340° North 414 476 34,000  Level Atlanta Center
Mon 09:02:40 AM 34.2808 -85.7811 339° North 409 471 34,000  Level Atlanta Center
Mon 09:03:40 AM 34.3803 -85.8283 339° North 401 461 34,000  Level Atlanta Center
Mon 09:04:40 AM 34.4881 -85.8758 340° North 396 456 34,000  Level Atlanta Center
Mon 09:05:40 AM 34.5833 -85.9233 338° Northwest 403 464 34,000  Level Atlanta Center
Mon 09:06:38 AM 34.6883 -85.9753 338° Northwest 406 467 34,000  Level Memphis Center
Mon 09:07:39 AM 34.7919 -86.0289 337° Northwest 407 468 34,000  Level Memphis Center
Mon 09:08:41 AM 34.9122 -86.0822 340° North 408 470 34,000  Level Memphis Center
Mon 09:09:43 AM 35.0181 -86.1372 337° Northwest 408 470 34,000  Level Memphis Center
Mon 09:10:45 AM 35.1236 -86.1864 339° North 408 470 34,000  Level Memphis Center
Mon 09:11:47 AM 35.2211 -86.2344 338° Northwest 406 467 34,000  Level Memphis Center
Mon 09:12:49 AM 35.3294 -86.2842 339° North 407 468 34,000  Level Memphis Center
Mon 09:13:51 AM 35.4486 -86.3533 335° Northwest 407 468 34,000  Level Memphis Center
Mon 09:14:53 AM 35.5319 -86.4503 317° Northwest 407 468 34,000  Level Memphis Center
Mon 09:15:55 AM 35.6219 -86.5361 322° Northwest 406 467 34,000  Level Memphis Center
Mon 09:16:57 AM 35.7044 -86.6328 316° Northwest 406 467 34,000  Level Memphis Center
Mon 09:17:59 AM 35.7922 -86.7208 321° Northwest 403 464 34,000  Level Memphis Center
Mon 09:19:01 AM 35.8753 -86.8192 316° Northwest 404 465 34,000  Level Memphis Center
Mon 09:20:03 AM 35.9644 -86.9083 321° Northwest 407 468 34,000  Level Memphis Center
Mon 09:21:05 AM 36.0475 -87.0069 316° Northwest 407 468 34,000  Level Memphis Center
Mon 09:22:08 AM 36.1508 -87.1136 320° Northwest 409 471 34,000  Level Memphis Center
Mon 09:23:10 AM 36.2353 -87.2089 318° Northwest 405 466 34,000  Level Memphis Center
Mon 09:24:12 AM 36.3225 -87.3006 320° Northwest 405 466 34,000  Level Memphis Center
Mon 09:25:14 AM 36.4053 -87.3947 318° Northwest 402 463 34,000  Level Memphis Center
Mon 09:26:16 AM 36.4906 -87.4850 320° Northwest 401 461 34,000  Level Memphis Center
Mon 09:27:18 AM 36.5733 -87.5794 318° Northwest 399 459 34,000  Level Memphis Center
Mon 09:28:20 AM 36.6569 -87.6711 319° Northwest 397 457 34,000  Level Memphis Center
Mon 09:29:22 AM 36.7406 -87.7658 318° Northwest 398 458 34,000  Level Memphis Center
Mon 09:30:24 AM 36.8244 -87.8586 318° Northwest 399 459 34,000  Level Memphis Center
Mon 09:31:26 AM 36.9219 -87.9661 319° Northwest 398 458 34,000  Level Memphis Center
Mon 09:32:28 AM 37.0039 -88.0606 317° Northwest 398 458 34,000  Level Memphis Center
Mon 09:33:30 AM 37.0772 -88.1422 318° Northwest 397 457 34,000  Level Memphis Center
Mon 09:34:32 AM 37.1733 -88.2547 317° Northwest 396 456 34,000  Level Memphis Center
Mon 09:35:34 AM 37.2553 -88.3450 319° Northwest 395 455 34,000  Level Memphis Center
Mon 09:36:36 AM 37.3353 -88.4378 317° Northwest 395 455 34,000  Level Memphis Center
Mon 09:37:38 AM 37.4169 -88.5289 318° Northwest 395 455 34,000  Level Memphis Center
Mon 09:38:41 AM 37.4964 -88.6217 317° Northwest 394 453 34,000  Level Memphis Center
Mon 09:39:43 AM 37.5778 -88.7125 319° Northwest 393 452 34,000  Level Memphis Center
Mon 09:40:45 AM 37.6725 -88.8267 316° Northwest 393 452 34,000  Level Memphis Center
Mon 09:41:47 AM 37.7550 -88.9164 319° Northwest 393 452 34,000  Level Memphis Center
Mon 09:42:49 AM 37.8328 -89.0119 316° Northwest 393 452 34,000  Level Memphis Center
Mon 09:43:51 AM 37.9150 -89.1025 319° Northwest 393 452 34,000  Level Memphis Center
Mon 09:44:53 AM 37.9925 -89.1983 316° Northwest 392 451 34,000  Level Memphis Center
Mon 09:46:13 AM 38.1125 -89.3386 317° Northwest 387 445 34,000  Level Kansas City Center
Mon 09:47:18 AM 38.1931 -89.4328 317° Northwest 393 452 34,000 48 Level Kansas City Center
Mon 09:48:19 AM 38.2717 -89.5269 317° Northwest 389 448 34,100  Climbing Kansas City Center
Mon 09:49:20 AM 38.3575 -89.6250 318° Northwest 388 447 34,000 -48 Descending Kansas City Center
Mon 09:50:23 AM 38.4381 -89.7247 316° Northwest 388 447 34,000  Level Kansas City Center
Mon 09:51:25 AM 38.5183 -89.8169 318° Northwest 389 448 34,000  Level Kansas City Center
Mon 09:52:25 AM 38.5969 -89.9133 316° Northwest 389 448 34,000  Level Kansas City Center
Mon 09:53:29 AM 38.6861 -90.0158 318° Northwest 390 449 34,000  Level Kansas City Center
Mon 09:54:30 AM 38.7517 -90.1019 314° West 390 449 34,000  Level Kansas City Center
Mon 09:55:34 AM 38.8319 -90.1925 319° Northwest 388 447 34,000  Level Kansas City Center
Mon 09:56:35 AM 38.9217 -90.3075 315° West 381 438 34,000  Level Kansas City Center
Mon 09:57:35 AM 38.9997 -90.3944 319° Northwest 392 451 34,000  Level Kansas City Center
Mon 09:58:40 AM 39.0742 -90.4939 314° West 388 447 34,000  Level Kansas City Center
Mon 09:59:40 AM 39.1694 -90.6042 318° Northwest 388 447 34,000  Level Kansas City Center
Mon 10:00:41 AM 39.2331 -90.6897 314° West 380 437 34,000  Level Kansas City Center
Mon 10:01:45 AM 39.3133 -90.7822 318° Northwest 382 440 34,000  Level Kansas City Center
Mon 10:02:46 AM 39.4033 -90.9003 315° West 382 440 34,000  Level Kansas City Center
Mon 10:03:49 AM 39.4692 -90.9725 320° Northwest 382 440 34,000  Level Kansas City Center
Mon 10:04:52 AM 39.5586 -91.0936 314° West 381 438 34,000  Level Kansas City Center
Mon 10:05:53 AM 39.6386 -91.1842 319° Northwest 381 438 34,000  Level Kansas City Center
Mon 10:06:54 AM 39.7103 -91.2842 313° West 382 440 34,000  Level Kansas City Center
Mon 10:07:57 AM 39.7867 -91.3767 317° Northwest 381 438 34,000  Level Kansas City Center
Mon 10:08:58 AM 39.8625 -91.4736 316° Northwest 381 438 34,000  Level Kansas City Center
Mon 10:10:00 AM 39.9550 -91.5836 318° Northwest 381 438 34,000  Level Kansas City Center
Mon 10:11:04 AM 40.0258 -91.6819 313° West 380 437 34,000  Level Kansas City Center
Mon 10:12:04 AM 40.1036 -91.7750 318° Northwest 380 437 34,000 -49 Level Kansas City Center
Mon 10:13:06 AM 40.1742 -91.8722 314° West 376 433 33,900 -898 Descending Kansas City Center
Mon 10:14:11 AM 40.2656 -91.9858 317° Northwest 377 434 32,100 -1,536 Descending Kansas City Center
Mon 10:15:11 AM 40.3422 -92.0850 315° West 386 444 30,700 -1,431 Descending Kansas City Center
Mon 10:16:00 AM 40.4058 -92.1642 317° Northwest 393 452 29,500 -1,459 Descending Chicago Center
Mon 10:17:02 AM 40.4811 -92.2686 313° West 397 457 28,000 -1,452 Descending Chicago Center
Mon 10:18:04 AM 40.5772 -92.3828 318° Northwest 397 457 26,500 -1,210 Descending Chicago Center
Mon 10:19:06 AM 40.6489 -92.4844 313° West 388 447 25,500 -1,161 Descending Chicago Center
Mon 10:20:08 AM 40.7272 -92.5808 317° Northwest 389 448 24,100 -1,887 Descending Chicago Center
Mon 10:21:10 AM 40.7964 -92.6786 313° West 374 430 21,600 -2,226 Descending Chicago Center
Mon 10:22:12 AM 40.8719 -92.7689 318° Northwest 374 430 19,500 -2,274 Descending Chicago Center
Mon 10:23:14 AM 40.9481 -92.8781 313° West 343 395 16,900 -2,516 Descending Chicago Center
Mon 10:24:16 AM 41.0147 -92.9625 316° Northwest 340 391 14,300 -2,274 Descending Chicago Center
Mon 10:25:18 AM 41.0717 -93.0567 309° West 333 383 12,200 -1,645 Descending Chicago Center
Mon 10:26:20 AM 41.1308 -93.1425 312° West 326 375 10,900 -1,368 Descending Chicago Center
Mon 10:27:12 AM 41.1839 -93.2194 313° West 275 316 9,600 -1,538 Descending Minneapolis Center
Mon 10:27:38 AM 41.1956 -93.2572 292° West 277 319 8,900 -1,672 Descending Minneapolis Center
Mon 10:28:13 AM 41.2331 -93.2953 323° Northwest 269 310 7,900 -1,770 Descending Minneapolis Center
Mon 10:28:39 AM 41.2483 -93.3406 294° West 275 316 7,100 -1,574 Descending Minneapolis Center
Mon 10:29:14 AM 41.2781 -93.3742 320° Northwest 270 311 6,300 -968 Descending Minneapolis Center
Mon 10:29:41 AM 41.2936 -93.4192 295° West 272 313 6,100 -200 Descending Minneapolis Center
Mon 10:30:14 AM 41.3292 -93.4503 327° Northwest 273 314 6,100  Level Minneapolis Center
Mon 10:30:42 AM 41.3444 -93.4942 295° West 272 313 6,100  Level Minneapolis Center
Mon 10:31:15 AM 41.3742 -93.5294 318° Northwest 272 313 6,100  Level Minneapolis Center
Mon 10:31:44 AM 41.3944 -93.5783 299° West 271 312 6,100  Level Minneapolis Center
Mon 10:32:16 AM 41.4275 -93.6083 326° Northwest 270 311 6,100 -689 Level Minneapolis Center
Mon 10:32:45 AM 41.4433 -93.6539 295° West 271 312 5,400 -1,667 Descending Minneapolis Center
Mon 10:33:10 AM 41.4658 -93.6767 323° Northwest 270 311 4,600 -1,355 Descending Minneapolis Center
Mon 10:33:47 AM 41.4878 -93.7358 296° West 271 312 4,000 -885 Descending Minneapolis Center
Mon 10:34:11 AM 41.5106 -93.7533 330° Northwest 245 282 3,700 -885 Descending Minneapolis Center
Mon 10:34:48 AM 41.5336 -93.7847 314° West 217 250 3,100 -984 Descending Minneapolis Center
Mon 10:35:12 AM 41.5544 -93.7606 41° Northeast 175 201 2,700 -774 Descending Minneapolis Center
Mon 10:35:50 AM 41.5708 -93.7403 43° Northeast 165 190 2,300 -600 Descending Minneapolis Center
Mon 10:36:12 AM 41.5789 -93.7158 66° East 134 154 2,100 -885 Descending Minneapolis Center
Mon 10:36:51 AM 41.5597 -93.6944 140° Southeast 140 161 1,400 -984 Descending Minneapolis Center
Mon 10:37:13 AM 41.5553 -93.6719 105° East 131 151 1,100 -387 Descending Minneapolis Center
Mon 10:37:53 AM 41.5358 -93.6597 155° Southeast 133 153 1,000 -59 Descending Minneapolis Center
Mon 10:38:55 AM 41.5289 -93.6492 131° Southeast 42 48 1,000  Level Minneapolis Center

Login

Don't have an account? Register now (free) for customized features, flight alerts, and more!